Terminal Aerodrome Forecast
Issued by NWS

Home | Current Version | Previous Version | Text Only | Print | Product List | Glossary On
Versions: 1 2 3 4 5 6 7 8 9 10 11 12 13 14 15 16
000
FTUS41 KCLE 271100
TAFFDY
TAF
KFDY 271137Z 2712/2812 33005KT P6SM OVC035
      TEMPO 2712/2715 OVC025
     FM271900 29012KT P6SM OVC025
      TEMPO 2720/2723 3SM -SHSN
     FM280300 30008KT P6SM OVC040=

USA.gov is the U.S. government's official web portal to all federal, state and local government web resources and services.